createdAt,value
2022-08-22T00:01:33.307Z,88.23
2022-08-22T00:04:13.139Z,88.26
2022-08-22T00:06:56.663Z,88.66
2022-08-22T00:09:39.103Z,88.68
2022-08-22T00:12:22.568Z,88.73
2022-08-22T00:15:31.685Z,88.51
2022-08-22T00:18:12.198Z,88.73
2022-08-22T00:20:50.443Z,88.83
2022-08-22T00:23:28.963Z,88.31
2022-08-22T00:26:10.329Z,88.25
2022-08-22T00:28:48.094Z,88.25
2022-08-22T00:31:22.605Z,88.04
2022-08-22T00:34:02.200Z,88.10
2022-08-22T00:36:39.838Z,88.42
2022-08-22T00:39:16.135Z,88.52
2022-08-22T00:42:31.404Z,88.30
2022-08-22T00:45:27.416Z,88.04
2022-08-22T00:48:14.385Z,87.82
2022-08-22T00:51:12.166Z,87.60
2022-08-22T00:53:51.991Z,87.32
2022-08-22T00:57:03.922Z,86.93
2022-08-22T01:00:02.303Z,86.67
2022-08-22T01:02:53.069Z,86.45
2022-08-22T01:05:42.704Z,86.09
2022-08-22T01:08:41.074Z,86.33
2022-08-22T01:11:31.301Z,86.32
2022-08-22T01:14:15.762Z,86.05
2022-08-22T01:17:09.999Z,85.72
2022-08-22T01:20:11.742Z,86.15
2022-08-22T01:23:15.043Z,86.15
2022-08-22T01:26:14.732Z,86.43
2022-08-22T01:29:34.195Z,86.25
2022-08-22T01:32:56.906Z,86.39
2022-08-22T01:35:47.723Z,86.26
2022-08-22T01:38:53.458Z,86.29
2022-08-22T01:41:51.910Z,86.18
2022-08-22T01:44:39.856Z,86.15
2022-08-22T01:47:18.077Z,85.66
2022-08-22T01:49:55.242Z,85.68
2022-08-22T01:52:42.771Z,85.58
2022-08-22T01:55:25.902Z,85.40
2022-08-22T01:58:00.627Z,85.31
2022-08-22T02:01:00.922Z,85.72
2022-08-22T02:03:38.373Z,85.82
2022-08-22T02:06:18.502Z,85.99
2022-08-22T02:09:20.642Z,85.73
2022-08-22T02:11:57.019Z,85.71
2022-08-22T02:14:41.794Z,85.73
2022-08-22T02:17:23.458Z,85.78
2022-08-22T02:20:04.467Z,85.82
2022-08-22T02:22:44.812Z,85.61
2022-08-22T02:25:24.870Z,85.43
2022-08-22T02:28:08.186Z,85.62
2022-08-22T02:30:51.576Z,85.59
2022-08-22T02:33:34.341Z,85.80
2022-08-22T02:36:17.133Z,85.76
2022-08-22T02:38:59.653Z,85.52
2022-08-22T02:41:38.576Z,85.42
2022-08-22T02:44:23.723Z,85.27
2022-08-22T02:47:04.034Z,85.45
2022-08-22T02:49:45.386Z,84.69
2022-08-22T02:52:22.516Z,84.93
2022-08-22T02:55:02.111Z,85.05
2022-08-22T02:57:39.696Z,85.30
2022-08-22T03:00:31.629Z,85.47
2022-08-22T03:03:17.077Z,85.83
2022-08-22T03:06:03.870Z,86.12
2022-08-22T03:09:01.576Z,85.99
2022-08-22T03:11:42.133Z,86.41
2022-08-22T03:14:20.041Z,86.58
2022-08-22T03:17:08.287Z,86.58
2022-08-22T03:19:54.909Z,86.29
2022-08-22T03:22:38.756Z,86.23
2022-08-22T03:25:21.397Z,86.09
2022-08-22T03:28:00.668Z,86.28
2022-08-22T03:30:41.258Z,86.08
2022-08-22T03:33:21.362Z,86.34
2022-08-22T03:36:03.402Z,86.27
2022-08-22T03:38:53.280Z,86.46
2022-08-22T03:41:55.154Z,86.02
2022-08-22T03:44:57.077Z,86.30
2022-08-22T03:47:44.053Z,85.98
2022-08-22T03:50:54.577Z,85.73
2022-08-22T03:53:42.527Z,85.77
2022-08-22T03:56:45.520Z,85.88
2022-08-22T03:59:51.444Z,86.00
2022-08-22T04:02:44.144Z,85.96
2022-08-22T04:05:47.979Z,85.92
2022-08-22T04:08:52.927Z,86.26
2022-08-22T04:11:44.491Z,85.75
2022-08-22T04:14:44.199Z,85.64
2022-08-22T04:17:44.144Z,85.50
2022-08-22T04:20:50.462Z,85.81
2022-08-22T04:23:58.802Z,85.74
2022-08-22T04:26:41.637Z,85.46
2022-08-22T04:29:22.752Z,85.35
2022-08-22T04:32:04.255Z,85.45
2022-08-22T04:34:43.642Z,85.17
2022-08-22T04:37:24.804Z,85.14
2022-08-22T04:40:04.709Z,85.01
2022-08-22T04:42:41.383Z,84.80
2022-08-22T04:45:17.753Z,84.52
2022-08-22T04:47:56.577Z,83.97
2022-08-22T04:50:45.074Z,83.89
2022-08-22T04:53:42.203Z,83.36
2022-08-22T04:56:23.377Z,83.12
2022-08-22T04:58:59.217Z,83.02
2022-08-22T05:01:49.154Z,83.01
2022-08-22T05:04:27.485Z,82.56
2022-08-22T05:07:05.485Z,82.16
2022-08-22T05:09:42.783Z,82.24
2022-08-22T05:12:29.638Z,82.30
2022-08-22T05:15:09.742Z,82.02
2022-08-22T05:17:53.866Z,82.01
2022-08-22T05:20:39.351Z,82.07
2022-08-22T05:23:26.383Z,81.78
2022-08-22T05:26:05.193Z,81.79
2022-08-22T05:28:59.710Z,81.45
2022-08-22T05:31:35.788Z,81.36
2022-08-22T05:34:12.044Z,81.42
2022-08-22T05:36:51.402Z,81.20
2022-08-22T05:39:27.887Z,81.34
2022-08-22T05:42:02.975Z,81.26
2022-08-22T05:44:38.527Z,80.67
2022-08-22T05:47:22.664Z,80.50
2022-08-22T05:50:09.167Z,80.97
2022-08-22T05:52:55.480Z,80.93
2022-08-22T05:55:33.753Z,80.45
2022-08-22T05:58:26.079Z,80.52
2022-08-22T06:01:06.640Z,80.61
2022-08-22T06:03:46.556Z,80.80
2022-08-22T06:06:23.237Z,80.38
2022-08-22T06:09:02.169Z,79.97
2022-08-22T06:11:40.849Z,79.57
2022-08-22T06:14:46.325Z,78.99
2022-08-22T06:17:36.609Z,78.41
2022-08-22T06:20:23.814Z,78.07
2022-08-22T06:23:01.551Z,77.67
2022-08-22T06:25:38.711Z,77.57
2022-08-22T06:28:24.398Z,77.21
2022-08-22T06:30:59.228Z,76.80
2022-08-22T06:33:33.974Z,76.09
2022-08-22T06:36:28.010Z,75.39
2022-08-22T06:39:12.417Z,74.70
2022-08-22T06:41:50.542Z,73.95
2022-08-22T06:44:25.772Z,73.65
2022-08-22T06:47:01.343Z,72.91
2022-08-22T06:49:36.381Z,72.54
2022-08-22T06:52:12.725Z,72.50
2022-08-22T06:54:48.735Z,72.58
2022-08-22T06:57:33.483Z,72.34
2022-08-22T07:00:13.398Z,71.90
2022-08-22T07:02:52.437Z,72.11
2022-08-22T07:05:28.122Z,71.95
2022-08-22T07:08:00.239Z,72.20
2022-08-22T07:10:32.274Z,72.01
2022-08-22T07:13:08.335Z,71.58
2022-08-22T07:15:44.537Z,71.74
2022-08-22T07:18:24.978Z,71.65
2022-08-22T07:20:59.568Z,71.33
2022-08-22T07:23:37.201Z,71.62
2022-08-22T07:26:21.307Z,71.49
2022-08-22T07:28:57.923Z,71.51
2022-08-22T07:31:34.724Z,71.15
2022-08-22T07:34:27.216Z,70.82
2022-08-22T07:37:05.723Z,70.43
2022-08-22T07:39:53.701Z,70.29
2022-08-22T07:42:38.584Z,69.83
2022-08-22T07:45:16.005Z,69.35
2022-08-22T07:48:01.903Z,69.08
2022-08-22T07:50:37.527Z,69.13
2022-08-22T07:53:23.552Z,69.15
2022-08-22T07:55:57.619Z,68.90
2022-08-22T07:58:33.960Z,68.41
2022-08-22T08:01:08.075Z,68.09
2022-08-22T08:03:40.653Z,67.61
2022-08-22T08:06:13.352Z,67.27
2022-08-22T08:08:47.067Z,66.85
2022-08-22T08:11:23.532Z,66.71
2022-08-22T08:14:02.994Z,66.71
2022-08-22T08:16:42.046Z,66.91
2022-08-22T08:19:16.930Z,67.14
2022-08-22T08:21:53.665Z,67.00
2022-08-22T08:24:37.076Z,66.97
2022-08-22T08:27:36.117Z,67.12
2022-08-22T08:30:21.342Z,67.31
2022-08-22T08:33:24.804Z,67.01
2022-08-22T08:36:02.265Z,65.81
2022-08-22T08:38:43.670Z,65.19
2022-08-22T08:41:46.446Z,64.82
2022-08-22T08:44:35.863Z,63.83
2022-08-22T08:47:51.372Z,62.82
2022-08-22T08:50:47.259Z,62.31
2022-08-22T08:53:42.806Z,61.70
2022-08-22T08:56:25.342Z,61.96
2022-08-22T08:59:09.959Z,62.28
2022-08-22T09:02:13.705Z,61.84
2022-08-22T09:05:45.192Z,61.78
2022-08-22T09:08:37.157Z,61.44
2022-08-22T09:11:50.593Z,60.72
2022-08-22T09:15:01.333Z,60.15
2022-08-22T09:17:51.987Z,61.01
2022-08-22T09:20:47.755Z,61.17
2022-08-22T09:24:07.014Z,61.31
2022-08-22T09:26:50.881Z,60.37
2022-08-22T09:29:54.830Z,58.10
2022-08-22T09:32:45.331Z,57.67
2022-08-22T09:35:25.956Z,56.75
2022-08-22T09:38:22.675Z,57.29
2022-08-22T09:41:11.154Z,56.47
2022-08-22T09:43:50.719Z,56.93
2022-08-22T09:46:44.226Z,57.12
2022-08-22T09:49:33.498Z,56.56
2022-08-22T09:52:48.409Z,56.33
2022-08-22T09:55:46.130Z,56.10
2022-08-22T09:58:33.751Z,55.65
2022-08-22T10:01:23.665Z,55.80
2022-08-22T10:04:46.010Z,56.85
2022-08-22T10:07:43.575Z,56.03
2022-08-22T10:10:41.155Z,54.46
2022-08-22T10:13:48.012Z,53.93
2022-08-22T10:16:53.058Z,53.40
2022-08-22T10:19:32.059Z,53.63
2022-08-22T10:22:21.952Z,54.23
2022-08-22T10:25:05.910Z,53.88
2022-08-22T10:27:57.846Z,53.53
2022-08-22T10:30:35.809Z,53.17
2022-08-22T10:33:15.583Z,52.56
2022-08-22T10:36:04.891Z,51.06
2022-08-22T10:38:46.112Z,51.37
2022-08-22T10:41:30.178Z,51.52
2022-08-22T10:44:10.963Z,50.81
2022-08-22T10:46:48.403Z,50.68
2022-08-22T10:49:28.274Z,50.08
2022-08-22T10:52:15.788Z,50.94
2022-08-22T10:54:52.672Z,50.11
2022-08-22T10:57:40.180Z,49.75
2022-08-22T11:00:22.647Z,49.92
2022-08-22T11:03:03.426Z,50.00
2022-08-22T11:05:44.364Z,49.13
2022-08-22T11:08:47.539Z,49.06
2022-08-22T11:11:32.625Z,49.94
2022-08-22T11:14:26.035Z,49.05
2022-08-22T11:17:31.052Z,49.04
2022-08-22T11:20:21.276Z,48.20
2022-08-22T11:23:12.274Z,47.19
2022-08-22T11:26:01.652Z,46.94
2022-08-22T11:29:07.810Z,47.09
2022-08-22T11:32:00.440Z,47.19
2022-08-22T11:34:49.384Z,46.10
2022-08-22T11:37:47.887Z,44.61
2022-08-22T11:40:37.987Z,44.38
2022-08-22T11:43:28.418Z,44.47
2022-08-22T11:46:15.748Z,43.99
2022-08-22T11:49:13.439Z,43.71
2022-08-22T11:52:00.346Z,42.95
2022-08-22T11:54:51.782Z,41.95
2022-08-22T11:57:34.212Z,41.81
2022-08-22T12:00:24.811Z,41.88
2022-08-22T12:03:17.300Z,41.08
2022-08-22T12:05:53.186Z,40.04
2022-08-22T12:09:04.514Z,39.37
2022-08-22T12:11:45.313Z,39.37
2022-08-22T12:14:27.579Z,38.90
2022-08-22T12:17:33.532Z,37.87
2022-08-22T12:20:22.179Z,38.27
2022-08-22T12:23:17.364Z,37.38
2022-08-22T12:26:10.743Z,37.71
2022-08-22T12:28:56.734Z,37.65
2022-08-22T12:31:37.874Z,37.36
2022-08-22T12:34:22.475Z,37.26
2022-08-22T12:37:15.751Z,36.66
2022-08-22T12:40:16.103Z,37.02
2022-08-22T12:43:02.688Z,36.84
2022-08-22T12:45:50.711Z,37.10
2022-08-22T12:48:38.972Z,38.21
2022-08-22T12:51:26.337Z,38.44
2022-08-22T12:54:44.910Z,38.81
2022-08-22T12:57:27.428Z,39.22
2022-08-22T13:00:08.752Z,39.86
2022-08-22T13:02:45.009Z,39.95
2022-08-22T13:05:24.768Z,39.94
2022-08-22T13:08:17.387Z,39.56
2022-08-22T13:10:52.279Z,39.20
2022-08-22T13:13:37.272Z,39.70
2022-08-22T13:16:15.620Z,39.87
2022-08-22T13:18:54.425Z,40.64
2022-08-22T13:21:34.565Z,40.87
2022-08-22T13:24:16.824Z,41.08
2022-08-22T13:26:59.975Z,42.10
2022-08-22T13:29:42.729Z,41.88
2022-08-22T13:32:29.763Z,42.15
2022-08-22T13:35:32.110Z,41.98
2022-08-22T13:38:12.106Z,41.47
2022-08-22T13:40:50.161Z,40.84
2022-08-22T13:43:25.011Z,39.94
2022-08-22T13:46:02.022Z,38.72
2022-08-22T13:49:01.044Z,38.82
2022-08-22T13:51:46.649Z,39.27
2022-08-22T13:54:39.442Z,39.17
2022-08-22T13:57:26.973Z,38.87
2022-08-22T14:00:29.577Z,39.00
2022-08-22T14:03:26.410Z,38.94
2022-08-22T14:06:35.550Z,39.00
2022-08-22T14:09:32.040Z,38.98
2022-08-22T14:12:13.748Z,38.51
2022-08-22T14:14:56.056Z,38.46
2022-08-22T14:17:32.921Z,38.35
2022-08-22T14:20:13.593Z,37.75
2022-08-22T14:23:30.153Z,37.40
2022-08-22T14:26:07.554Z,37.28
2022-08-22T14:28:56.745Z,37.69
2022-08-22T14:31:32.037Z,38.32
2022-08-22T14:34:10.702Z,38.54
2022-08-22T14:36:50.080Z,39.44
2022-08-22T14:39:28.675Z,39.83
2022-08-22T14:42:13.075Z,40.15
2022-08-22T14:45:01.572Z,40.60
2022-08-22T14:47:55.563Z,41.27
2022-08-22T14:50:53.036Z,41.27
2022-08-22T14:53:29.489Z,41.65
2022-08-22T14:56:09.083Z,41.41
2022-08-22T14:58:53.247Z,41.22
2022-08-22T15:01:29.906Z,41.70
2022-08-22T15:04:22.742Z,40.54
2022-08-22T15:06:57.810Z,40.56
2022-08-22T15:09:35.778Z,40.75
2022-08-22T15:12:10.476Z,41.17
2022-08-22T15:14:52.700Z,41.05
2022-08-22T15:17:45.201Z,41.12
2022-08-22T15:20:35.240Z,41.24
2022-08-22T15:23:17.487Z,41.26
2022-08-22T15:26:06.616Z,41.34
2022-08-22T15:28:53.097Z,41.40
2022-08-22T15:31:39.694Z,41.17
2022-08-22T15:34:32.744Z,41.23
2022-08-22T15:37:32.638Z,41.70
2022-08-22T15:40:40.907Z,42.32
2022-08-22T15:43:34.843Z,42.50
2022-08-22T15:46:30.470Z,43.13
2022-08-22T15:49:06.894Z,43.38
2022-08-22T15:51:52.694Z,43.88
2022-08-22T15:54:27.323Z,44.17
2022-08-22T15:57:19.176Z,44.43
2022-08-22T15:59:57.395Z,44.99
2022-08-22T16:03:01.837Z,45.66
2022-08-22T16:05:54.534Z,46.21
2022-08-22T16:08:54.307Z,46.86
2022-08-22T16:11:33.654Z,47.03
2022-08-22T16:14:22.531Z,47.31
2022-08-22T16:17:07.119Z,47.38
2022-08-22T16:19:39.851Z,47.54
2022-08-22T16:22:16.515Z,47.85
2022-08-22T16:25:10.397Z,48.22
2022-08-22T16:27:59.820Z,48.55
2022-08-22T16:30:39.464Z,48.99
2022-08-22T16:33:17.811Z,49.17
2022-08-22T16:36:24.537Z,49.43
2022-08-22T16:38:59.905Z,49.91
2022-08-22T16:41:44.653Z,50.21
2022-08-22T16:44:43.996Z,50.33
2022-08-22T16:47:19.016Z,50.60
2022-08-22T16:50:05.157Z,51.13
2022-08-22T16:53:10.623Z,51.51
2022-08-22T16:56:03.383Z,51.88
2022-08-22T16:59:23.095Z,52.04
2022-08-22T17:02:08.941Z,52.50
2022-08-22T17:04:54.700Z,52.79
2022-08-22T17:07:44.166Z,53.12
2022-08-22T17:10:30.825Z,53.62
2022-08-22T17:13:15.604Z,54.09
2022-08-22T17:16:00.213Z,54.29
2022-08-22T17:18:44.243Z,54.41
2022-08-22T17:21:26.139Z,55.17
2022-08-22T17:24:07.482Z,55.33
2022-08-22T17:26:50.964Z,55.72
2022-08-22T17:29:43.656Z,56.02
2022-08-22T17:32:25.347Z,56.19
2022-08-22T17:35:14.833Z,56.63
2022-08-22T17:38:02.359Z,57.08
2022-08-22T17:40:49.563Z,57.39
2022-08-22T17:43:48.510Z,57.77
2022-08-22T17:46:35.196Z,58.28
2022-08-22T17:49:20.875Z,58.54
2022-08-22T17:52:18.398Z,58.92
2022-08-22T17:54:55.625Z,59.35
2022-08-22T17:57:33.317Z,59.68
2022-08-22T18:00:11.566Z,60.49
2022-08-22T18:02:51.140Z,61.19
2022-08-22T18:05:27.816Z,61.95
2022-08-22T18:08:08.322Z,63.29
2022-08-22T18:10:49.267Z,65.70
2022-08-22T18:13:50.711Z,68.21
2022-08-22T18:16:29.377Z,70.72
2022-08-22T18:19:08.352Z,69.81
2022-08-22T18:21:54.617Z,69.33
2022-08-22T18:24:33.659Z,68.80
2022-08-22T18:27:34.066Z,69.11
2022-08-22T18:30:20.561Z,70.21
2022-08-22T18:33:01.814Z,71.08
2022-08-22T18:35:43.884Z,71.85
2022-08-22T18:38:30.511Z,72.27
2022-08-22T18:41:13.268Z,72.82
2022-08-22T18:43:59.243Z,73.44
2022-08-22T18:46:44.887Z,73.92
2022-08-22T18:49:43.761Z,73.83
2022-08-22T18:52:37.482Z,74.47
2022-08-22T18:55:46.261Z,74.83
2022-08-22T18:59:02.905Z,74.92
2022-08-22T19:02:13.753Z,75.16
2022-08-22T19:05:35.145Z,75.56
2022-08-22T19:08:53.590Z,76.16
2022-08-22T19:12:01.735Z,76.94
2022-08-22T19:15:11.775Z,77.32
2022-08-22T19:18:26.934Z,77.18
2022-08-22T19:21:44.570Z,77.10
2022-08-22T19:25:16.312Z,76.90
2022-08-22T19:28:35.950Z,77.02
2022-08-22T19:31:44.391Z,77.11
2022-08-22T19:34:41.906Z,77.03
2022-08-22T19:37:54.028Z,77.80
2022-08-22T19:40:55.624Z,78.09
2022-08-22T19:43:50.519Z,77.98
2022-08-22T19:46:44.328Z,78.29
2022-08-22T19:49:40.512Z,78.38
2022-08-22T19:52:46.596Z,78.49
2022-08-22T19:55:57.411Z,78.84
2022-08-22T19:59:00.909Z,79.00
2022-08-22T20:02:01.733Z,78.98
2022-08-22T20:05:09.526Z,79.40
2022-08-22T20:08:08.470Z,79.59
2022-08-22T20:11:13.484Z,80.04
2022-08-22T20:14:26.567Z,80.58
2022-08-22T20:17:44.543Z,80.74
2022-08-22T20:20:38.180Z,80.77
2022-08-22T20:23:33.968Z,80.73
2022-08-22T20:26:26.277Z,81.18
2022-08-22T20:29:20.285Z,80.94
2022-08-22T20:32:15.927Z,81.06
2022-08-22T20:35:12.680Z,81.39
2022-08-22T20:38:13.152Z,81.88
2022-08-22T20:41:15.191Z,82.37
2022-08-22T20:44:13.487Z,82.60
2022-08-22T20:47:10.176Z,83.37
2022-08-22T20:50:09.682Z,83.73
2022-08-22T20:53:18.414Z,83.60
2022-08-22T20:56:12.059Z,83.77
2022-08-22T20:59:23.029Z,83.38
2022-08-22T21:02:20.413Z,83.47
2022-08-22T21:05:24.078Z,83.53
2022-08-22T21:08:20.189Z,83.48
2022-08-22T21:11:38.271Z,83.29
2022-08-22T21:14:37.893Z,83.05
2022-08-22T21:17:35.627Z,82.79
2022-08-22T21:20:35.846Z,83.11
2022-08-22T21:23:28.013Z,82.64
2022-08-22T21:26:26.184Z,82.48
2022-08-22T21:29:31.701Z,82.26
2022-08-22T21:32:32.984Z,82.03
2022-08-22T21:35:29.878Z,81.83
2022-08-22T21:38:22.721Z,81.71
2022-08-22T21:41:19.343Z,81.59
2022-08-22T21:44:33.411Z,81.53
2022-08-22T21:47:31.498Z,81.56
2022-08-22T21:50:38.299Z,81.56
2022-08-22T21:53:31.355Z,81.71
2022-08-22T21:56:17.877Z,81.86
2022-08-22T21:59:51.142Z,82.27
2022-08-22T22:02:42.059Z,82.51
2022-08-22T22:05:34.957Z,82.63
2022-08-22T22:08:31.464Z,82.41
2022-08-22T22:11:24.105Z,82.31
2022-08-22T22:14:16.274Z,82.89
2022-08-22T22:17:11.365Z,82.90
2022-08-22T22:20:03.857Z,83.39
2022-08-22T22:22:56.104Z,83.12
2022-08-22T22:25:49.175Z,83.25
2022-08-22T22:28:43.885Z,82.70
2022-08-22T22:31:35.910Z,83.15
2022-08-22T22:34:28.114Z,82.93
2022-08-22T22:37:20.187Z,82.65
2022-08-22T22:40:14.100Z,82.87
2022-08-22T22:43:06.269Z,82.85
2022-08-22T22:45:58.740Z,82.83
2022-08-22T22:48:50.782Z,82.69
2022-08-22T22:51:43.789Z,82.50
2022-08-22T22:54:35.788Z,82.30
2022-08-22T22:57:28.206Z,82.70
2022-08-22T23:00:21.165Z,82.83
2022-08-22T23:03:17.668Z,83.91
2022-08-22T23:06:13.773Z,84.19
2022-08-22T23:09:05.988Z,84.12
2022-08-22T23:11:57.977Z,84.36
2022-08-22T23:14:50.346Z,84.80
2022-08-22T23:17:44.321Z,84.65
2022-08-22T23:20:36.329Z,84.92
2022-08-22T23:23:28.420Z,84.97
2022-08-22T23:26:20.463Z,85.51
2022-08-22T23:29:12.815Z,85.37
2022-08-22T23:31:50.265Z,85.11
2022-08-22T23:34:46.008Z,84.56
2022-08-22T23:37:38.116Z,84.23
2022-08-22T23:40:30.244Z,84.20
2022-08-22T23:43:22.280Z,84.17
2022-08-22T23:46:16.294Z,83.54
2022-08-22T23:49:00.533Z,84.25
2022-08-22T23:51:53.392Z,84.92
2022-08-22T23:54:45.458Z,85.04
2022-08-22T23:57:40.541Z,85.71
